createdAt,value
2019-05-23T00:01:56.093Z,6.80
2019-05-23T00:04:36.207Z,6.22
2019-05-23T00:07:29.667Z,8.15
2019-05-23T00:10:04.431Z,6.57
2019-05-23T00:12:56.267Z,7.40
2019-05-23T00:15:34.222Z,6.20
2019-05-23T00:18:07.240Z,7.40
2019-05-23T00:20:38.815Z,6.03
2019-05-23T00:23:13.334Z,7.20
2019-05-23T00:25:47.284Z,7.78
2019-05-23T00:28:20.899Z,6.47
2019-05-23T00:31:11.549Z,5.57
2019-05-23T00:33:57.389Z,6.95
2019-05-23T00:36:32.040Z,6.23
2019-05-23T00:39:25.113Z,7.10
2019-05-23T00:41:58.179Z,6.07
2019-05-23T00:44:30.900Z,6.97
2019-05-23T00:47:02.722Z,6.80
2019-05-23T00:49:35.206Z,6.97
2019-05-23T00:52:09.127Z,6.73
2019-05-23T00:54:42.858Z,9.33
2019-05-23T00:57:23.416Z,5.90
2019-05-23T00:59:59.139Z,8.23
2019-05-23T01:02:45.371Z,7.63
2019-05-23T01:05:19.222Z,8.77
2019-05-23T01:07:52.921Z,6.87
2019-05-23T01:10:27.462Z,7.33
2019-05-23T01:13:00.328Z,5.80
2019-05-23T01:15:33.289Z,8.17
2019-05-23T01:18:07.477Z,6.83
2019-05-23T01:21:05.328Z,7.50
2019-05-23T01:23:41.097Z,8.75
2019-05-23T01:26:14.016Z,6.50
2019-05-23T01:28:46.605Z,8.67
2019-05-23T01:31:22.980Z,6.30
2019-05-23T01:33:57.303Z,6.22
2019-05-23T01:36:42.380Z,7.13
2019-05-23T01:39:14.142Z,7.47
2019-05-23T01:41:47.316Z,7.60
2019-05-23T01:44:21.659Z,8.87
2019-05-23T01:46:54.577Z,6.53
2019-05-23T01:49:26.466Z,7.97
2019-05-23T01:52:00.408Z,9.13
2019-05-23T01:54:33.477Z,7.15
2019-05-23T01:57:05.958Z,7.50
2019-05-23T01:59:41.515Z,7.12
2019-05-23T02:02:16.709Z,7.03
2019-05-23T02:04:48.768Z,7.62
2019-05-23T02:07:21.235Z,8.00
2019-05-23T02:10:02.839Z,9.40
2019-05-23T02:12:37.829Z,7.90
2019-05-23T02:15:12.990Z,11.57
2019-05-23T02:17:45.795Z,7.67
2019-05-23T02:20:25.393Z,8.50
2019-05-23T02:22:59.225Z,8.83
2019-05-23T02:25:33.013Z,12.77
2019-05-23T02:28:08.908Z,11.60
2019-05-23T02:30:42.745Z,10.50
2019-05-23T02:33:18.042Z,8.77
2019-05-23T02:35:53.767Z,8.00
2019-05-23T02:38:40.419Z,7.63
2019-05-23T02:41:32.152Z,8.73
2019-05-23T02:44:14.616Z,9.50
2019-05-23T02:46:52.261Z,7.67
2019-05-23T02:49:26.670Z,7.60
2019-05-23T02:52:02.207Z,7.67
2019-05-23T02:54:37.579Z,7.80
2019-05-23T02:57:12.033Z,9.03
2019-05-23T02:59:52.084Z,9.07
2019-05-23T03:03:03.710Z,10.05
2019-05-23T03:05:46.350Z,10.20
2019-05-23T03:08:20.682Z,8.83
2019-05-23T03:10:59.099Z,9.60
2019-05-23T03:13:34.670Z,9.43
2019-05-23T03:16:08.076Z,8.63
2019-05-23T03:18:52.043Z,10.30
2019-05-23T03:21:26.220Z,10.90
2019-05-23T03:24:00.698Z,9.00
2019-05-23T03:27:10.142Z,8.63
2019-05-23T03:29:43.473Z,8.95
2019-05-23T03:32:38.977Z,9.85
2019-05-23T03:35:26.046Z,8.37
2019-05-23T03:38:00.712Z,9.43
2019-05-23T03:40:36.840Z,10.73
2019-05-23T03:43:13.077Z,10.95
2019-05-23T03:45:54.957Z,9.23
2019-05-23T03:48:36.458Z,11.10
2019-05-23T03:51:09.803Z,10.50
2019-05-23T03:53:43.599Z,9.23
2019-05-23T03:56:16.809Z,11.48
2019-05-23T03:59:01.126Z,12.28
2019-05-23T04:01:47.590Z,11.33
2019-05-23T04:04:10.476Z,12.83
2019-05-23T04:06:43.455Z,10.53
2019-05-23T04:09:16.476Z,10.78
2019-05-23T04:11:50.893Z,10.80
2019-05-23T04:14:24.167Z,10.78
2019-05-23T04:16:57.037Z,10.30
2019-05-23T04:19:30.207Z,10.73
2019-05-23T04:22:03.285Z,10.90
2019-05-23T04:24:35.473Z,9.97
2019-05-23T04:27:09.566Z,11.23
2019-05-23T04:29:41.875Z,10.70
2019-05-23T04:32:14.284Z,11.78
2019-05-23T04:34:46.150Z,9.75
2019-05-23T04:37:19.500Z,9.83
2019-05-23T04:39:52.613Z,10.83
2019-05-23T04:42:25.062Z,9.10
2019-05-23T04:44:59.078Z,10.43
2019-05-23T04:47:31.601Z,9.23
2019-05-23T04:50:06.966Z,9.70
2019-05-23T04:52:39.476Z,10.10
2019-05-23T04:55:13.386Z,11.97
2019-05-23T04:57:45.547Z,10.33
2019-05-23T05:00:29.462Z,10.73
2019-05-23T05:03:01.710Z,10.80
2019-05-23T05:05:34.356Z,12.27
2019-05-23T05:08:06.793Z,10.32
2019-05-23T05:10:42.379Z,11.13
2019-05-23T05:13:15.077Z,11.90
2019-05-23T05:15:47.348Z,12.10
2019-05-23T05:18:27.304Z,11.97
2019-05-23T05:21:00.126Z,13.33
2019-05-23T05:23:32.159Z,10.57
2019-05-23T05:26:03.361Z,11.13
2019-05-23T05:28:36.172Z,11.30
2019-05-23T05:31:09.598Z,10.43
2019-05-23T05:33:42.307Z,11.77
2019-05-23T05:36:15.087Z,9.47
2019-05-23T05:38:48.526Z,10.07
2019-05-23T05:41:22.929Z,10.10
2019-05-23T05:43:57.240Z,11.00
2019-05-23T05:46:29.404Z,10.03
2019-05-23T05:49:01.943Z,9.63
2019-05-23T05:51:34.830Z,11.50
2019-05-23T05:54:10.098Z,11.67
2019-05-23T05:56:43.381Z,10.10
2019-05-23T05:59:16.178Z,10.37
2019-05-23T06:01:51.124Z,10.93
2019-05-23T06:04:24.149Z,16.10
2019-05-23T06:07:02.766Z,10.73
2019-05-23T06:09:34.663Z,16.63
2019-05-23T06:12:09.237Z,9.97
2019-05-23T06:14:49.164Z,12.33
2019-05-23T06:17:25.200Z,10.03
2019-05-23T06:19:57.485Z,10.90
2019-05-23T06:22:31.263Z,9.83
2019-05-23T06:25:05.048Z,10.23
2019-05-23T06:27:38.635Z,10.07
2019-05-23T06:30:12.406Z,8.68
2019-05-23T06:32:46.831Z,8.83
2019-05-23T06:35:20.100Z,10.67
2019-05-23T06:37:52.608Z,9.97
2019-05-23T06:40:28.931Z,9.67
2019-05-23T06:43:02.145Z,10.83
2019-05-23T06:45:34.739Z,10.70
2019-05-23T06:48:09.433Z,8.77
2019-05-23T06:50:42.248Z,9.23
2019-05-23T06:53:15.641Z,11.43
2019-05-23T06:55:48.395Z,10.40
2019-05-23T06:58:22.021Z,9.73
2019-05-23T07:00:56.561Z,9.30
2019-05-23T07:03:41.757Z,12.07
2019-05-23T07:06:04.412Z,9.07
2019-05-23T07:08:36.728Z,10.83
2019-05-23T07:11:09.609Z,9.50
2019-05-23T07:14:01.419Z,10.60
2019-05-23T07:16:34.862Z,10.57
2019-05-23T07:19:07.827Z,12.33
2019-05-23T07:21:40.021Z,10.37
2019-05-23T07:24:13.332Z,11.47
2019-05-23T07:26:47.370Z,10.03
2019-05-23T07:29:20.257Z,9.57
2019-05-23T07:31:52.071Z,10.90
2019-05-23T07:34:24.489Z,11.10
2019-05-23T07:36:58.211Z,9.63
2019-05-23T07:39:29.940Z,10.60
2019-05-23T07:42:02.851Z,10.40
2019-05-23T07:44:47.414Z,11.20
2019-05-23T07:47:11.211Z,10.33
2019-05-23T07:49:44.885Z,10.77
2019-05-23T07:52:19.696Z,9.37
2019-05-23T07:55:03.267Z,8.73
2019-05-23T07:57:37.789Z,10.80
2019-05-23T08:00:17.554Z,10.90
2019-05-23T08:02:53.275Z,10.93
2019-05-23T08:05:25.434Z,13.65
2019-05-23T08:07:58.355Z,11.53
2019-05-23T08:10:34.181Z,10.10
2019-05-23T08:13:07.930Z,10.82
2019-05-23T08:15:41.309Z,13.47
2019-05-23T08:18:14.232Z,14.30
2019-05-23T08:20:47.815Z,12.67
2019-05-23T08:23:21.300Z,12.70
2019-05-23T08:25:53.560Z,11.37
2019-05-23T08:28:25.412Z,13.05
2019-05-23T08:30:58.391Z,13.47
2019-05-23T08:33:30.937Z,13.47
2019-05-23T08:36:06.161Z,9.40
2019-05-23T08:38:39.700Z,11.20
2019-05-23T08:41:12.227Z,9.48
2019-05-23T08:43:44.269Z,10.10
2019-05-23T08:46:18.832Z,9.97
2019-05-23T08:48:52.828Z,10.47
2019-05-23T08:51:25.705Z,8.27
2019-05-23T08:54:14.462Z,9.70
2019-05-23T08:56:47.310Z,9.60
2019-05-23T08:59:20.228Z,10.43
2019-05-23T09:01:54.254Z,10.20
2019-05-23T09:04:28.595Z,11.57
2019-05-23T09:07:02.660Z,9.87
2019-05-23T09:09:44.047Z,8.10
2019-05-23T09:12:17.940Z,10.70
2019-05-23T09:14:51.245Z,9.50
2019-05-23T09:17:49.771Z,8.28
2019-05-23T09:20:08.328Z,9.68
2019-05-23T09:22:42.008Z,7.90
2019-05-23T09:25:16.720Z,7.12
2019-05-23T09:27:51.967Z,7.30
2019-05-23T09:30:28.500Z,8.57
2019-05-23T09:33:01.933Z,7.80
2019-05-23T09:35:35.602Z,9.17
2019-05-23T09:38:07.922Z,7.00
2019-05-23T09:40:41.162Z,9.88
2019-05-23T09:43:13.657Z,7.23
2019-05-23T09:45:45.519Z,8.63
2019-05-23T09:48:18.976Z,6.90
2019-05-23T09:50:52.215Z,7.23
2019-05-23T09:53:27.376Z,8.55
2019-05-23T09:56:01.061Z,7.57
2019-05-23T09:58:33.036Z,7.07
2019-05-23T10:01:05.604Z,6.93
2019-05-23T10:03:36.677Z,7.10
2019-05-23T10:06:09.346Z,6.60
2019-05-23T10:08:40.721Z,6.75
2019-05-23T10:11:12.582Z,5.77
2019-05-23T10:13:45.480Z,5.70
2019-05-23T10:16:17.604Z,6.17
2019-05-23T10:18:50.974Z,6.83
2019-05-23T10:21:23.423Z,6.83
2019-05-23T10:23:57.167Z,7.53
2019-05-23T10:26:29.443Z,8.60
2019-05-23T10:29:02.694Z,10.27
2019-05-23T10:31:34.377Z,7.05
2019-05-23T10:34:07.733Z,8.75
2019-05-23T10:36:40.404Z,7.37
2019-05-23T10:39:14.363Z,6.40
2019-05-23T10:41:50.857Z,7.47
2019-05-23T10:44:22.101Z,6.30
2019-05-23T10:46:54.483Z,8.20
2019-05-23T10:49:26.793Z,6.05
2019-05-23T10:52:01.132Z,6.60
2019-05-23T10:54:41.480Z,6.33
2019-05-23T10:57:23.368Z,10.67
2019-05-23T10:59:57.193Z,6.17
2019-05-23T11:02:43.808Z,6.60
2019-05-23T11:05:17.233Z,7.47
2019-05-23T11:07:58.458Z,6.10
2019-05-23T11:10:34.312Z,5.90
2019-05-23T11:13:07.083Z,5.97
2019-05-23T11:15:40.821Z,6.03
2019-05-23T11:18:13.585Z,5.07
2019-05-23T11:20:45.480Z,5.57
2019-05-23T11:23:24.618Z,4.37
2019-05-23T11:26:01.097Z,4.90
2019-05-23T11:28:34.591Z,6.03
2019-05-23T11:31:08.945Z,11.08
2019-05-23T11:33:41.287Z,6.63
2019-05-23T11:36:13.302Z,9.67
2019-05-23T11:38:46.334Z,4.57
2019-05-23T11:41:26.169Z,6.40
2019-05-23T11:43:58.222Z,6.03
2019-05-23T11:46:34.717Z,5.57
2019-05-23T11:49:07.840Z,4.92
2019-05-23T11:51:40.009Z,6.13
2019-05-23T11:54:21.098Z,5.92
2019-05-23T11:56:55.883Z,7.03
2019-05-23T11:59:30.220Z,5.60
2019-05-23T12:02:28.760Z,5.20
2019-05-23T12:05:02.900Z,5.80
2019-05-23T12:07:38.350Z,7.13
2019-05-23T12:10:11.937Z,7.27
2019-05-23T12:12:44.999Z,4.87
2019-05-23T12:15:25.311Z,7.83
2019-05-23T12:17:58.151Z,5.25
2019-05-23T12:20:31.629Z,7.45
2019-05-23T12:23:10.541Z,5.73
2019-05-23T12:25:40.362Z,4.70
2019-05-23T12:28:16.158Z,15.27
2019-05-23T12:30:48.714Z,5.73
2019-05-23T12:33:21.687Z,5.00
2019-05-23T12:35:54.513Z,5.53
2019-05-23T12:38:28.237Z,7.47
2019-05-23T12:41:00.380Z,4.80
2019-05-23T12:43:41.163Z,7.53
2019-05-23T12:46:13.628Z,15.67
2019-05-23T12:48:58.926Z,19.57
2019-05-23T12:51:34.428Z,24.23
2019-05-23T12:54:07.245Z,6.40
2019-05-23T12:56:41.530Z,8.53
2019-05-23T12:59:15.017Z,5.37
2019-05-23T13:01:49.729Z,9.48
2019-05-23T13:04:24.061Z,7.63
2019-05-23T13:06:56.572Z,7.90
2019-05-23T13:09:38.913Z,18.17
2019-05-23T13:12:11.265Z,12.13
2019-05-23T13:14:43.708Z,4.30
2019-05-23T13:17:23.693Z,4.58
2019-05-23T13:19:56.302Z,4.00
2019-05-23T13:22:28.080Z,5.03
2019-05-23T13:25:01.418Z,4.60
2019-05-23T13:27:37.023Z,5.40
2019-05-23T13:30:09.870Z,7.40
2019-05-23T13:32:42.732Z,11.80
2019-05-23T13:35:15.432Z,12.97
2019-05-23T13:37:53.606Z,4.78
2019-05-23T13:40:22.437Z,10.80
2019-05-23T13:42:54.764Z,4.40
2019-05-23T13:45:26.894Z,4.70
2019-05-23T13:47:59.781Z,5.15
2019-05-23T13:50:33.033Z,5.80
2019-05-23T13:53:07.018Z,5.20
2019-05-23T13:55:40.269Z,4.37
2019-05-23T13:58:13.283Z,4.50
2019-05-23T14:00:45.255Z,4.47
2019-05-23T14:03:18.233Z,4.60
2019-05-23T14:05:51.096Z,4.83
2019-05-23T14:08:24.477Z,6.03
2019-05-23T14:10:58.729Z,6.10
2019-05-23T14:13:33.322Z,10.10
2019-05-23T14:16:07.012Z,3.50
2019-05-23T14:18:39.592Z,4.20
2019-05-23T14:21:14.585Z,3.67
2019-05-23T14:23:48.783Z,4.22
2019-05-23T14:26:22.133Z,4.07
2019-05-23T14:28:55.551Z,6.70
2019-05-23T14:31:30.957Z,3.97
2019-05-23T14:34:05.228Z,5.12
2019-05-23T14:36:56.767Z,3.90
2019-05-23T14:39:51.668Z,4.60
2019-05-23T14:42:53.438Z,4.87
2019-05-23T14:45:51.135Z,4.83
2019-05-23T14:48:41.429Z,4.47
2019-05-23T14:51:48.001Z,2.95
2019-05-23T14:54:37.934Z,3.40
2019-05-23T14:57:11.496Z,3.30
2019-05-23T14:59:44.751Z,4.77
2019-05-23T15:02:20.304Z,5.60
2019-05-23T15:04:53.755Z,4.37
2019-05-23T15:07:27.442Z,3.67
2019-05-23T15:10:00.212Z,3.97
2019-05-23T15:12:32.368Z,5.30
2019-05-23T15:15:04.328Z,3.90
2019-05-23T15:17:37.767Z,4.67
2019-05-23T15:20:11.787Z,6.60
2019-05-23T15:22:45.006Z,6.97
2019-05-23T15:25:17.079Z,4.40
2019-05-23T15:27:49.383Z,4.30
2019-05-23T15:30:22.536Z,6.73
2019-05-23T15:32:54.735Z,5.22
2019-05-23T15:35:28.746Z,5.60
2019-05-23T15:38:02.037Z,6.97
2019-05-23T15:40:35.205Z,3.70
2019-05-23T15:43:10.115Z,3.63
2019-05-23T15:45:42.644Z,3.67
2019-05-23T15:48:14.821Z,3.90
2019-05-23T15:50:52.169Z,3.60
2019-05-23T15:53:32.806Z,7.90
2019-05-23T15:56:28.415Z,3.93
2019-05-23T15:59:16.280Z,3.53
2019-05-23T16:02:14.007Z,4.90
2019-05-23T16:04:59.864Z,5.07
2019-05-23T16:07:41.805Z,5.28
2019-05-23T16:10:15.428Z,8.30
2019-05-23T16:12:49.708Z,5.77
2019-05-23T16:15:22.195Z,7.17
2019-05-23T16:17:54.725Z,4.83
2019-05-23T16:20:28.009Z,4.27
2019-05-23T16:23:01.833Z,6.80
2019-05-23T16:25:35.336Z,6.00
2019-05-23T16:28:08.137Z,4.43
2019-05-23T16:30:40.901Z,6.40
2019-05-23T16:33:13.617Z,4.75
2019-05-23T16:35:44.971Z,5.97
2019-05-23T16:38:18.054Z,6.20
2019-05-23T16:40:51.535Z,5.10
2019-05-23T16:43:24.880Z,5.83
2019-05-23T16:46:04.390Z,7.03
2019-05-23T16:48:38.091Z,4.72
2019-05-23T16:51:11.490Z,5.37
2019-05-23T16:53:45.561Z,5.15
2019-05-23T16:56:40.247Z,4.80
2019-05-23T16:59:30.629Z,6.90
2019-05-23T17:02:29.297Z,4.70
2019-05-23T17:05:23.252Z,4.80
2019-05-23T17:08:22.411Z,3.92
2019-05-23T17:11:16.130Z,3.13
2019-05-23T17:14:05.718Z,3.57
2019-05-23T17:16:48.584Z,4.70
2019-05-23T17:19:39.963Z,5.33
2019-05-23T17:22:21.460Z,4.53
2019-05-23T17:25:34.622Z,4.17
2019-05-23T17:28:48.131Z,5.00
2019-05-23T17:31:22.403Z,5.87
2019-05-23T17:33:56.752Z,4.37
2019-05-23T17:36:30.352Z,4.63
2019-05-23T17:39:02.833Z,5.07
2019-05-23T17:41:34.633Z,5.63
2019-05-23T17:44:06.412Z,4.90
2019-05-23T17:46:39.611Z,3.50
2019-05-23T17:49:11.292Z,5.40
2019-05-23T17:51:43.733Z,6.90
2019-05-23T17:54:16.653Z,5.93
2019-05-23T17:56:48.482Z,5.00
2019-05-23T17:59:21.051Z,6.03
2019-05-23T18:01:53.533Z,5.67
2019-05-23T18:04:25.383Z,4.30
2019-05-23T18:06:58.912Z,5.23
2019-05-23T18:09:31.252Z,3.77
2019-05-23T18:12:06.531Z,3.73
2019-05-23T18:14:38.856Z,5.40
2019-05-23T18:17:11.532Z,3.47
2019-05-23T18:19:43.270Z,3.35
2019-05-23T18:22:16.452Z,3.23
2019-05-23T18:24:48.580Z,4.42
2019-05-23T18:27:21.032Z,3.17
2019-05-23T18:29:54.283Z,4.90
2019-05-23T18:32:28.051Z,2.63
2019-05-23T18:35:00.751Z,3.40
2019-05-23T18:37:31.972Z,4.08
2019-05-23T18:40:06.054Z,3.17
2019-05-23T18:42:39.313Z,1.80
2019-05-23T18:45:13.340Z,3.10
2019-05-23T18:47:44.971Z,2.40
2019-05-23T18:50:17.613Z,3.08
2019-05-23T18:52:52.210Z,2.17
2019-05-23T18:55:23.792Z,2.07
2019-05-23T18:57:55.934Z,3.17
2019-05-23T19:01:03.307Z,4.40
2019-05-23T19:03:36.186Z,3.77
2019-05-23T19:06:08.536Z,4.53
2019-05-23T19:08:41.130Z,4.83
2019-05-23T19:11:20.630Z,4.77
2019-05-23T19:13:46.398Z,2.97
2019-05-23T19:16:18.146Z,3.33
2019-05-23T19:18:49.794Z,2.77
2019-05-23T19:21:22.272Z,4.57
2019-05-23T19:23:55.712Z,3.73
2019-05-23T19:26:27.674Z,4.27
2019-05-23T19:29:00.198Z,2.43
2019-05-23T19:31:33.613Z,3.17
2019-05-23T19:34:06.991Z,3.27
2019-05-23T19:36:41.395Z,3.95
2019-05-23T19:39:14.559Z,3.30
2019-05-23T19:41:46.452Z,2.83
2019-05-23T19:44:18.273Z,4.03
2019-05-23T19:46:49.933Z,2.15
2019-05-23T19:49:21.305Z,2.27
2019-05-23T19:51:53.481Z,2.20
2019-05-23T19:54:28.500Z,2.77
2019-05-23T19:57:00.352Z,2.37
2019-05-23T19:59:32.172Z,3.73
2019-05-23T20:02:20.574Z,4.30
2019-05-23T20:04:59.360Z,5.77
2019-05-23T20:07:31.025Z,2.25
2019-05-23T20:10:02.939Z,2.63
2019-05-23T20:12:34.692Z,2.10
2019-05-23T20:15:06.732Z,2.10
2019-05-23T20:17:39.373Z,2.23
2019-05-23T20:20:11.013Z,2.20
2019-05-23T20:22:42.598Z,2.30
2019-05-23T20:25:15.432Z,2.90
2019-05-23T20:27:47.493Z,2.20
2019-05-23T20:30:52.781Z,2.43
2019-05-23T20:33:23.774Z,2.13
2019-05-23T20:35:56.833Z,3.00
2019-05-23T20:38:28.853Z,2.17
2019-05-23T20:41:00.713Z,3.00
2019-05-23T20:43:32.719Z,2.60
2019-05-23T20:46:05.954Z,2.10
2019-05-23T20:48:38.013Z,2.53
2019-05-23T20:51:10.865Z,1.93
2019-05-23T20:53:44.045Z,1.30
2019-05-23T20:56:14.612Z,2.57
2019-05-23T20:58:45.173Z,1.80
2019-05-23T21:01:22.192Z,1.77
2019-05-23T21:03:55.956Z,2.07
2019-05-23T21:06:27.931Z,1.90
2019-05-23T21:09:00.437Z,2.00
2019-05-23T21:11:32.994Z,1.90
2019-05-23T21:14:05.668Z,1.60
2019-05-23T21:16:37.443Z,2.20
2019-05-23T21:19:07.965Z,2.80
2019-05-23T21:21:40.487Z,2.37
2019-05-23T21:24:13.347Z,2.90
2019-05-23T21:26:45.139Z,2.10
2019-05-23T21:29:17.052Z,2.12
2019-05-23T21:31:48.547Z,3.17
2019-05-23T21:34:22.240Z,2.07
2019-05-23T21:36:53.827Z,2.13
2019-05-23T21:39:25.781Z,2.33
2019-05-23T21:41:56.435Z,2.30
2019-05-23T21:44:28.236Z,4.10
2019-05-23T21:47:00.496Z,2.87
2019-05-23T21:49:33.577Z,2.70
2019-05-23T21:52:07.700Z,2.60
2019-05-23T21:54:50.060Z,2.23
2019-05-23T21:57:23.165Z,2.10
2019-05-23T21:59:56.139Z,2.67
2019-05-23T22:02:36.211Z,2.80
2019-05-23T22:05:20.959Z,2.77
2019-05-23T22:07:54.156Z,2.33
2019-05-23T22:10:28.265Z,2.63
2019-05-23T22:13:04.959Z,2.60
2019-05-23T22:15:41.767Z,3.30
2019-05-23T22:18:14.567Z,2.95
2019-05-23T22:20:47.262Z,2.97
2019-05-23T22:23:19.494Z,2.27
2019-05-23T22:25:51.734Z,2.50
2019-05-23T22:28:25.220Z,2.80
2019-05-23T22:31:00.183Z,3.43
2019-05-23T22:33:34.839Z,2.47
2019-05-23T22:36:17.569Z,3.33
2019-05-23T22:38:49.968Z,3.72
2019-05-23T22:41:22.801Z,3.05
2019-05-23T22:44:01.846Z,3.37
2019-05-23T22:46:35.684Z,3.33
2019-05-23T22:49:08.698Z,2.50
2019-05-23T22:51:41.386Z,2.47
2019-05-23T22:54:15.294Z,3.33
2019-05-23T22:56:47.196Z,3.20
2019-05-23T22:59:19.022Z,3.93
2019-05-23T23:01:50.783Z,3.17
2019-05-23T23:04:23.566Z,3.03
2019-05-23T23:06:55.076Z,3.80
2019-05-23T23:09:31.093Z,3.30
2019-05-23T23:12:04.954Z,4.27
2019-05-23T23:14:38.482Z,5.00
2019-05-23T23:17:11.714Z,3.50
2019-05-23T23:19:44.108Z,4.87
2019-05-23T23:22:16.038Z,4.57
2019-05-23T23:24:48.873Z,5.07
2019-05-23T23:27:22.560Z,3.80
2019-05-23T23:29:54.778Z,5.27
2019-05-23T23:32:29.131Z,4.00
2019-05-23T23:35:01.617Z,6.87
2019-05-23T23:37:34.904Z,6.90
2019-05-23T23:40:08.059Z,5.33
2019-05-23T23:42:40.268Z,6.13
2019-05-23T23:45:31.314Z,7.17
2019-05-23T23:48:22.153Z,5.63
2019-05-23T23:51:12.385Z,5.17
2019-05-23T23:54:03.210Z,6.03
2019-05-23T23:56:53.974Z,6.90
2019-05-23T23:59:25.971Z,6.37
